Observation data for Turkey on 03/24/2019      Previous  Date  Next       Current Mesonet Observations  Soil Data  Daily Summary Page  Observations in Plain Language
KTUR 240500Z 23008KT 12/M01 A2994 RMK A01 T01211014  RH  040%=      5-min Rain = 0
KTUR 240505Z 24008KT 12/M01 A2994 RMK A01 T01191013  RH  040%=      5-min Rain = 0
KTUR 240510Z 24008KT 12/M02 A2994 RMK A01 T01191017  RH  039%=      5-min Rain = 0
KTUR 240515Z 26007KT 12/M02 A2994 RMK A01 T01231020  RH  037%=      5-min Rain = 0
KTUR 240520Z 29008KT 11/M02 A2995 RMK A01 T01141021  RH  040%=      5-min Rain = 0
KTUR 240525Z 28008KT 11/M02 A2995 RMK A01 T01101019  RH  041%=      5-min Rain = 0
KTUR 240530Z 27010KT 12/M02 A2995 RMK A01 T01151022  RH  039%=      5-min Rain = 0
KTUR 240535Z 27010KT 13/M03 A2995 RMK A01 T01321028  RH  033%=      5-min Rain = 0
KTUR 240540Z 26010KT 14/M03 A2994 RMK A01 T01351030  RH  032%=      5-min Rain = 0
KTUR 240545Z 26010KT 13/M03 A2994 RMK A01 T01331030  RH  033%=      5-min Rain = 0
KTUR 240550Z 25009KT 13/M03 A2994 RMK A01 T01291029  RH  034%=      5-min Rain = 0
KTUR 240555Z 25010KT 13/M03 A2995 RMK A01 T01291029  RH  034%=      5-min Rain = 0
KTUR 240600Z 26009KT 12/M03 A2995 RMK A01 T01241028  RH  035%=      5-min Rain = 0
KTUR 240605Z 25008KT 12/M03 A2995 RMK A01 T01211027  RH  036%=      5-min Rain = 0
KTUR 240610Z 25007KT 12/M03 A2995 RMK A01 T01201027  RH  036%=      5-min Rain = 0
KTUR 240615Z 27008KT 12/M03 A2995 RMK A01 T01181027  RH  037%=      5-min Rain = 0
KTUR 240620Z 28008KT 11/M02 A2995 RMK A01 T01121015  RH  042%=      5-min Rain = 0
KTUR 240625Z 28007KT 11/M01 A2995 RMK A01 T01111010  RH  043%=      5-min Rain = 0
KTUR 240630Z 26008KT 12/M01 A2995 RMK A01 T01171013  RH  041%=      5-min Rain = 0
KTUR 240635Z 26008KT 12/M02 A2995 RMK A01 T01221023  RH  037%=      5-min Rain = 0
KTUR 240640Z 26009KT 12/M02 A2995 RMK A01 T01151024  RH  038%=      5-min Rain = 0
KTUR 240645Z 24009KT 12/M02 A2995 RMK A01 T01151023  RH  038%=      5-min Rain = 0
KTUR 240650Z 24011KT 11/M02 A2995 RMK A01 T01131021  RH  040%=      5-min Rain = 0
KTUR 240655Z 23010KT 11/M02 A2995 RMK A01 T01111019  RH  041%=      5-min Rain = 0
KTUR 240700Z 21011KT 11/M02 A2995 RMK A01 T01051017  RH  043%=      5-min Rain = 0
KTUR 240705Z 22012KT 11/M02 A2995 RMK A01 T01071019  RH  042%=      5-min Rain = 0
KTUR 240710Z 23013KT 11/M02 A2995 RMK A01 T01091019  RH  041%=      5-min Rain = 0
KTUR 240715Z 23012KT 11/M02 A2995 RMK A01 T01061017  RH  043%=      5-min Rain = 0
KTUR 240720Z 23011KT 10/M02 A2995 RMK A01 T01001015  RH  045%=      5-min Rain = 0
KTUR 240725Z 23011KT 10/M02 A2995 RMK A01 T00981015  RH  046%=      5-min Rain = 0
KTUR 240730Z 22013KT 10/M02 A2995 RMK A01 T01001016  RH  045%=      5-min Rain = 0
KTUR 240735Z 23014KT 11/M02 A2994 RMK A01 T01061018  RH  042%=      5-min Rain = 0
KTUR 240740Z 22013KT 11/M02 A2994 RMK A01 T01081018  RH  042%=      5-min Rain = 0
KTUR 240745Z 23012KT 11/M02 A2995 RMK A01 T01051016  RH  043%=      5-min Rain = 0
KTUR 240750Z 24013KT 10/M02 A2995 RMK A01 T01041017  RH  043%=      5-min Rain = 0
KTUR 240755Z 24013KT 11/M02 A2995 RMK A01 T01101021  RH  040%=      5-min Rain = 0
KTUR 240800Z 24014KT 12/M03 A2995 RMK A01 T01171025  RH  037%=      5-min Rain = 0
KTUR 240805Z 23014KT 12/M03 A2995 RMK A01 T01191026  RH  036%=      5-min Rain = 0
KTUR 240810Z 23012KT 11/M02 A2995 RMK A01 T01141024  RH  039%=      5-min Rain = 0
KTUR 240815Z 23012KT 11/M02 A2994 RMK A01 T01111024  RH  039%=      5-min Rain = 0
KTUR 240820Z 23013KT 11/M03 A2994 RMK A01 T01131026  RH  038%=      5-min Rain = 0
KTUR 240825Z 23012KT 11/M02 A2995 RMK A01 T01111023  RH  040%=      5-min Rain = 0
KTUR 240830Z 23012KT 11/M02 A2994 RMK A01 T01071022  RH  041%=      5-min Rain = 0
KTUR 240835Z 24012KT 11/M03 A2995 RMK A01 T01091025  RH  040%=      5-min Rain = 0
KTUR 240840Z 24012KT 11/M03 A2995 RMK A01 T01131028  RH  038%=      5-min Rain = 0
KTUR 240845Z 24013KT 12/M03 A2995 RMK A01 T01171031  RH  036%=      5-min Rain = 0
KTUR 240850Z 23012KT 12/M03 A2995 RMK A01 T01151030  RH  037%=      5-min Rain = 0
KTUR 240855Z 23011KT 11/M03 A2995 RMK A01 T01121027  RH  038%=      5-min Rain = 0
KTUR 240900Z 24011KT 11/M02 A2995 RMK A01 T01051024  RH  041%=      5-min Rain = 0
KTUR 240905Z 25011KT 10/M03 A2995 RMK A01 T01031026  RH  041%=      5-min Rain = 0
KTUR 240910Z 25012G17KT 12/M03 A2995 RMK A01 T01161032  RH  036%=      5-min Rain = 0
KTUR 240915Z 24014KT 12/M03 A2995 RMK A01 T01231031  RH  034%=      5-min Rain = 0
KTUR 240920Z 24014KT 12/M03 A2995 RMK A01 T01231029  RH  035%=      5-min Rain = 0
KTUR 240925Z 24013KT 12/M03 A2995 RMK A01 T01231027  RH  036%=      5-min Rain = 0
KTUR 240930Z 24013KT 12/M03 A2995 RMK A01 T01221026  RH  036%=      5-min Rain = 0
KTUR 240935Z 24011KT 12/M02 A2995 RMK A01 T01191023  RH  038%=      5-min Rain = 0
KTUR 240940Z 25010KT 12/M02 A2995 RMK A01 T01171021  RH  039%=      5-min Rain = 0
KTUR 240945Z 25009KT 12/M02 A2995 RMK A01 T01161019  RH  040%=      5-min Rain = 0
KTUR 240950Z 25010KT 12/M02 A2995 RMK A01 T01171016  RH  040%=      5-min Rain = 0
KTUR 240955Z 25010KT 12/M01 A2995 RMK A01 T01221013  RH  040%=      5-min Rain = 0
KTUR 241000Z 26012G17KT 13/M01 A2995 RMK A01 T01331012  RH  037%=      5-min Rain = 0
KTUR 241005Z 26014KT 14/M01 A2995 RMK A01 T01381010  RH  036%=      5-min Rain = 0
KTUR 241010Z 28009KT 13/M01 A2995 RMK A01 T01341010  RH  037%=      5-min Rain = 0
KTUR 241015Z 28009KT 13/M01 A2996 RMK A01 T01281010  RH  039%=      5-min Rain = 0
KTUR 241020Z 28012KT 13/M01 A2996 RMK A01 T01271006  RH  040%=      5-min Rain = 0
KTUR 241025Z 30012KT 13/M01 A2996 RMK A01 T01261005  RH  041%=      5-min Rain = 0
KTUR 241030Z 29011KT 12/M01 A2996 RMK A01 T01211005  RH  042%=      5-min Rain = 0
KTUR 241035Z 30011KT 12/M00 A2996 RMK A01 T01191004  RH  043%=      5-min Rain = 0
KTUR 241040Z 29011KT 12/00 A2996 RMK A01 T011600-0  RH  045%=      5-min Rain = 0
KTUR 241045Z 30012KT 11/00 A2996 RMK A01 T01140003  RH  047%=      5-min Rain = 0
KTUR 241050Z 30014KT 11/00 A2996 RMK A01 T01120004  RH  048%=      5-min Rain = 0
KTUR 241055Z 31013KT 11/00 A2996 RMK A01 T01090003  RH  048%=      5-min Rain = 0
KTUR 241100Z 31016KT 11/01 A2996 RMK A01 T01080005  RH  049%=      5-min Rain = 0
KTUR 241105Z 31017G22KT 11/01 A2996 RMK A01 T01100009  RH  051%=      5-min Rain = 0
KTUR 241110Z 30016KT 11/01 A2996 RMK A01 T01090012  RH  052%=      5-min Rain = 0
KTUR 241115Z 30015KT 11/02 A2997 RMK A01 T01060015  RH  054%=      5-min Rain = 0
KTUR 241120Z 31016G21KT 10/02 A2997 RMK A01 T01040017  RH  056%=      5-min Rain = 0
KTUR 241125Z 31019G25KT 10/02 A2997 RMK A01 T01030021  RH  057%=      5-min Rain = 0
KTUR 241130Z 32017G23KT 10/02 A2998 RMK A01 T00990022  RH  060%=      5-min Rain = 0
KTUR 241135Z 32018G23KT 10/03 A2998 RMK A01 T00960025  RH  062%=      5-min Rain = 0
KTUR 241140Z 31018KT 09/03 A2998 RMK A01 T00930027  RH  064%=      5-min Rain = 0
KTUR 241145Z 31020KT 09/03 A2998 RMK A01 T00900027  RH  066%=      5-min Rain = 0
KTUR 241150Z 31019KT 09/03 A2998 RMK A01 T00880028  RH  067%=      5-min Rain = 0
KTUR 241155Z 31019KT 09/03 A2998 RMK A01 T00870029  RH  068%=      5-min Rain = 0
KTUR 241200Z 32017KT 09/03 A2999 RMK A01 T00850030  RH  069%=      5-min Rain = 0
KTUR 241205Z 32018KT 08/03 A2999 RMK A01 T00840031  RH  070%=      5-min Rain = 0
KTUR 241210Z 32017KT 08/03 A2999 RMK A01 T00820032  RH  071%=      5-min Rain = 0
KTUR 241215Z 32017G22KT 08/03 A2999 RMK A01 T00810032  RH  072%=      5-min Rain = 0
KTUR 241220Z 32017KT 08/03 A30 RMK A01 T00810033  RH  072%=      5-min Rain = 0
KTUR 241225Z 32017KT 08/03 A30 RMK A01 T00800033  RH  073%=      5-min Rain = 0
KTUR 241230Z 32017KT 08/03 A30 RMK A01 T00790033  RH  073%=      5-min Rain = 0
KTUR 241235Z 32016KT 08/03 A30 RMK A01 T00780033  RH  074%=      5-min Rain = 0
KTUR 241240Z 32016KT 08/03 A3001 RMK A01 T00780033  RH  074%=      5-min Rain = 0
KTUR 241245Z 32016G21KT 08/03 A3001 RMK A01 T00770033  RH  075%=      5-min Rain = 0
KTUR 241250Z 32016KT 08/03 A3001 RMK A01 T00760033  RH  075%=      5-min Rain = 0
KTUR 241255Z 32016KT 08/03 A3001 RMK A01 T00770033  RH  075%=      5-min Rain = 0
KTUR 241300Z 32015KT 08/03 A3002 RMK A01 T00770034  RH  075%=      5-min Rain = 0
KTUR 241305Z 32012KT 08/03 A3003 RMK A01 T00770033  RH  075%=      5-min Rain = 0
KTUR 241310Z 31009KT 08/03 A3004 RMK A01 T00790034  RH  074%=      5-min Rain = 0
KTUR 241315Z 31008KT 08/03 A3004 RMK A01 T00800034  RH  074%=      5-min Rain = 0
KTUR 241320Z 31009KT 08/03 A3004 RMK A01 T00810034  RH  073%=      5-min Rain = 0
KTUR 241325Z 31009KT 08/04 A3004 RMK A01 T00820035  RH  073%=      5-min Rain = 0
KTUR 241330Z 31010KT 09/04 A3005 RMK A01 T00850035  RH  072%=      5-min Rain = 0
KTUR 241335Z 32010KT 09/04 A3005 RMK A01 T00860035  RH  071%=      5-min Rain = 0
KTUR 241340Z 32010KT 09/04 A3005 RMK A01 T00880035  RH  071%=      5-min Rain = 0
KTUR 241345Z 32010KT 09/04 A3005 RMK A01 T00900035  RH  069%=      5-min Rain = 0
KTUR 241350Z 33009KT 09/04 A3006 RMK A01 T00920036  RH  068%=      5-min Rain = 0
KTUR 241355Z 33010KT 10/04 A3006 RMK A01 T00950036  RH  067%=      5-min Rain = 0
KTUR 241400Z 32011KT 10/04 A3006 RMK A01 T00950036  RH  067%=      5-min Rain = 0
KTUR 241405Z 32011KT 10/04 A3006 RMK A01 T00970036  RH  067%=      5-min Rain = 0
KTUR 241410Z 32011KT 10/04 A3006 RMK A01 T00990036  RH  066%=      5-min Rain = 0
KTUR 241415Z 32011KT 10/04 A3006 RMK A01 T01000036  RH  065%=      5-min Rain = 0
KTUR 241420Z 33013KT 10/04 A3006 RMK A01 T01010035  RH  064%=      5-min Rain = 0
KTUR 241425Z 33012KT 10/04 A3006 RMK A01 T01040036  RH  064%=      5-min Rain = 0
KTUR 241430Z 33014KT 11/04 A3006 RMK A01 T01060036  RH  063%=      5-min Rain = 0
KTUR 241435Z 33013KT 11/04 A3007 RMK A01 T01060036  RH  063%=      5-min Rain = 0
KTUR 241440Z 33013KT 11/04 A3007 RMK A01 T01090036  RH  062%=      5-min Rain = 0
KTUR 241445Z 33013KT 11/04 A3007 RMK A01 T01100036  RH  061%=      5-min Rain = 0
KTUR 241450Z 33011KT 11/04 A3007 RMK A01 T01120037  RH  060%=      5-min Rain = 0
KTUR 241455Z 33011KT 11/04 A3007 RMK A01 T01130037  RH  060%=      5-min Rain = 0
KTUR 241500Z 32011KT 12/04 A3007 RMK A01 T01160037  RH  059%=      5-min Rain = 0
KTUR 241505Z 33009KT 12/04 A3007 RMK A01 T01180037  RH  058%=      5-min Rain = 0
KTUR 241510Z 34010KT 12/04 A3007 RMK A01 T01190037  RH  058%=      5-min Rain = 0
KTUR 241515Z 32010KT 12/04 A3007 RMK A01 T01220039  RH  057%=      5-min Rain = 0
KTUR 241520Z 33010KT 12/04 A3008 RMK A01 T01190037  RH  058%=      5-min Rain = 0
KTUR 241525Z 32009KT 12/04 A3008 RMK A01 T01200038  RH  058%=      5-min Rain = 0
KTUR 241530Z 33008KT 12/04 A3008 RMK A01 T01210038  RH  058%=      5-min Rain = 0
KTUR 241535Z 32007KT 12/04 A3009 RMK A01 T01200038  RH  058%=      5-min Rain = 0
KTUR 241540Z 31008KT 12/04 A3009 RMK A01 T01230039  RH  057%=      5-min Rain = 0
KTUR 241545Z 33006KT 13/04 A3009 RMK A01 T01290040  RH  055%=      5-min Rain = 0
KTUR 241550Z 31007KT 13/04 A3009 RMK A01 T01300040  RH  055%=      5-min Rain = 0
KTUR 241555Z 30006KT 13/04 A3009 RMK A01 T01300038  RH  054%=      5-min Rain = 0
KTUR 241600Z 34006G11KT 14/04 A3009 RMK A01 T01390040  RH  052%=      5-min Rain = 0
KTUR 241605Z 32007KT 14/04 A3009 RMK A01 T01400040  RH  051%=      5-min Rain = 0
KTUR 241610Z 33005G10KT 14/04 A3009 RMK A01 T01400039  RH  051%=      5-min Rain = 0
KTUR 241615Z 31006KT 14/04 A301 RMK A01 T01440040  RH  051%=      5-min Rain = 0
KTUR 241620Z 31006KT 14/04 A3009 RMK A01 T01440040  RH  050%=      5-min Rain = 0
KTUR 241625Z 31005G10KT 14/04 A3009 RMK A01 T01440041  RH  050%=      5-min Rain = 0
KTUR 241630Z 36006KT 15/04 A3009 RMK A01 T01520040  RH  048%=      5-min Rain = 0
KTUR 241635Z 35005KT 15/04 A3009 RMK A01 T01530040  RH  047%=      5-min Rain = 0
KTUR 241640Z 01004KT 15/04 A3009 RMK A01 T01530039  RH  047%=      5-min Rain = 0
KTUR 241645Z 35004KT 16/04 A3009 RMK A01 T01550037  RH  046%=      5-min Rain = 0
KTUR 241650Z 01006KT 16/04 A3009 RMK A01 T01580038  RH  045%=      5-min Rain = 0
KTUR 241655Z 03006G11KT 16/04 A3009 RMK A01 T01600038  RH  045%=      5-min Rain = 0
KTUR 241700Z 03005KT 16/04 A3009 RMK A01 T01600038  RH  045%=      5-min Rain = 0
KTUR 241705Z 36006KT 16/04 A3009 RMK A01 T01630040  RH  044%=      5-min Rain = 0
KTUR 241710Z 36006KT 16/04 A3008 RMK A01 T01630037  RH  043%=      5-min Rain = 0
KTUR 241715Z 02005KT 16/04 A3008 RMK A01 T01610039  RH  045%=      5-min Rain = 0
KTUR 241720Z 02005KT 17/04 A3008 RMK A01 T01670040  RH  043%=      5-min Rain = 0
KTUR 241725Z 01006KT 17/04 A3008 RMK A01 T01690037  RH  042%=      5-min Rain = 0
KTUR 241730Z 02005KT 17/04 A3008 RMK A01 T01730038  RH  041%=      5-min Rain = 0
KTUR 241735Z 00006KT 17/04 A3008 RMK A01 T01730039  RH  042%=      5-min Rain = 0
KTUR 241740Z 01003KT 17/04 A3008 RMK A01 T01720039  RH  042%=      5-min Rain = 0
KTUR 241745Z 01005KT 17/04 A3007 RMK A01 T01730038  RH  041%=      5-min Rain = 0
KTUR 241750Z 02007KT 17/04 A3007 RMK A01 T01730038  RH  041%=      5-min Rain = 0
KTUR 241755Z 01006KT 18/04 A3007 RMK A01 T01750036  RH  040%=      5-min Rain = 0
KTUR 241800Z 02006KT 18/04 A3007 RMK A01 T01790037  RH  039%=      5-min Rain = 0
KTUR 241805Z 04005KT 18/04 A3007 RMK A01 T01790035  RH  039%=      5-min Rain = 0
KTUR 241810Z 03003KT 18/03 A3007 RMK A01 T01810032  RH  038%=      5-min Rain = 0
KTUR 241815Z 02004KT 18/03 A3007 RMK A01 T01830030  RH  036%=      5-min Rain = 0
KTUR 241820Z 01006KT 18/03 A3007 RMK A01 T01830033  RH  037%=      5-min Rain = 0
KTUR 241825Z 02004G9KT 18/03 A3007 RMK A01 T01790032  RH  038%=      5-min Rain = 0
KTUR 241830Z 02003G8KT 18/03 A3006 RMK A01 T01790031  RH  038%=      5-min Rain = 0
KTUR 241835Z 03003G8KT 18/03 A3006 RMK A01 T01830031  RH  037%=      5-min Rain = 0
KTUR 241840Z 03003KT 18/03 A3006 RMK A01 T01840030  RH  036%=      5-min Rain = 0
KTUR 241845Z 01005G10KT 18/03 A3006 RMK A01 T01840029  RH  036%=      5-min Rain = 0
KTUR 241850Z 35006KT 19/03 A3007 RMK A01 T01860030  RH  036%=      5-min Rain = 0
KTUR 241855Z 01003G9KT 19/03 A3006 RMK A01 T01870030  RH  036%=      5-min Rain = 0
KTUR 241900Z 35004G9KT 19/03 A3006 RMK A01 T01890032  RH  036%=      5-min Rain = 0
KTUR 241905Z 35002G8KT 19/03 A3006 RMK A01 T01920033  RH  035%=      5-min Rain = 0
KTUR 241910Z 03005G11KT 19/03 A3006 RMK A01 T01910034  RH  036%=      5-min Rain = 0
KTUR 241915Z 35006KT 19/04 A3006 RMK A01 T01940035  RH  035%=      5-min Rain = 0
KTUR 241920Z 34005KT 19/04 A3006 RMK A01 T01930035  RH  035%=      5-min Rain = 0
KTUR 241925Z 02004G9KT 19/03 A3006 RMK A01 T01930033  RH  035%=      5-min Rain = 0
KTUR 241930Z 03001KT 20/03 A3005 RMK A01 T01990034  RH  034%=      5-min Rain = 0
KTUR 241935Z 08003KT 21/04 A3005 RMK A01 T02060036  RH  033%=      5-min Rain = 0
KTUR 241940Z 02005KT 20/03 A3005 RMK A01 T01990033  RH  034%=      5-min Rain = 0
KTUR 241945Z 05003KT 20/03 A3005 RMK A01 T01950033  RH  035%=      5-min Rain = 0
KTUR 241950Z 13002KT 20/03 A3004 RMK A01 T01970033  RH  034%=      5-min Rain = 0
KTUR 241955Z 11004KT 20/03 A3004 RMK A01 T02000034  RH  034%=      5-min Rain = 0
KTUR 242000Z 03005KT 20/03 A3004 RMK A01 T02030034  RH  033%=      5-min Rain = 0
KTUR 242005Z 02006KT 20/03 A3004 RMK A01 T02010034  RH  033%=      5-min Rain = 0
KTUR 242010Z 34003KT 20/03 A3004 RMK A01 T01970032  RH  034%=      5-min Rain = 0
KTUR 242015Z 14002KT 20/03 A3004 RMK A01 T01970032  RH  034%=      5-min Rain = 0
KTUR 242020Z 15004KT 20/03 A3004 RMK A01 T02040033  RH  033%=      5-min Rain = 0
KTUR 242025Z 17004KT 21/03 A3004 RMK A01 T02050032  RH  032%=      5-min Rain = 0
KTUR 242030Z 10002KT 21/03 A3004 RMK A01 T02080033  RH  032%=      5-min Rain = 0
KTUR 242035Z 04003KT 21/03 A3004 RMK A01 T02130032  RH  031%=      5-min Rain = 0
KTUR 242040Z 01004KT 21/03 A3004 RMK A01 T02120033  RH  031%=      5-min Rain = 0
KTUR 242045Z 01003KT 21/03 A3004 RMK A01 T02060031  RH  032%=      5-min Rain = 0
KTUR 242050Z 34001KT 21/03 A3003 RMK A01 T02080031  RH  032%=      5-min Rain = 0
KTUR 242055Z 01002KT 21/03 A3003 RMK A01 T02130031  RH  031%=      5-min Rain = 0
KTUR 242100Z 03001KT 21/03 A3003 RMK A01 T02100029  RH  031%=      5-min Rain = 0
KTUR 242105Z 14001KT 21/03 A3003 RMK A01 T02140031  RH  030%=      5-min Rain = 0
KTUR 242110Z 16003KT 21/03 A3003 RMK A01 T02130032  RH  031%=      5-min Rain = 0
KTUR 242115Z 18005KT 21/03 A3003 RMK A01 T02120031  RH  031%=      5-min Rain = 0
KTUR 242120Z 15003KT 21/03 A3003 RMK A01 T02120031  RH  031%=      5-min Rain = 0
KTUR 242125Z 11004KT 22/03 A3003 RMK A01 T02160032  RH  030%=      5-min Rain = 0
KTUR 242130Z 08005KT 21/03 A3003 RMK A01 T02140031  RH  030%=      5-min Rain = 0
KTUR 242135Z 05003KT 21/03 A3002 RMK A01 T02140031  RH  031%=      5-min Rain = 0
KTUR 242140Z 01005KT 21/03 A3002 RMK A01 T02130031  RH  030%=      5-min Rain = 0
KTUR 242145Z 34006KT 21/03 A3002 RMK A01 T02120030  RH  031%=      5-min Rain = 0
KTUR 242150Z 00004KT 22/03 A3003 RMK A01 T02150031  RH  030%=      5-min Rain = 0
KTUR 242155Z 36003KT 22/03 A3003 RMK A01 T02190030  RH  029%=      5-min Rain = 0
KTUR 242200Z 03002KT 22/03 A3003 RMK A01 T02150028  RH  030%=      5-min Rain = 0
KTUR 242205Z 07002KT 21/03 A3003 RMK A01 T02100027  RH  030%=      5-min Rain = 0
KTUR 242210Z 11003KT 21/03 A3003 RMK A01 T02130028  RH  030%=      5-min Rain = 0
KTUR 242215Z 11001KT 22/03 A3003 RMK A01 T02190028  RH  029%=      5-min Rain = 0
KTUR 242220Z 05001KT 22/03 A3003 RMK A01 T02230028  RH  028%=      5-min Rain = 0
KTUR 242225Z 17003KT 22/03 A3002 RMK A01 T02220028  RH  028%=      5-min Rain = 0
KTUR 242230Z 14001G6KT 22/03 A3002 RMK A01 T02210028  RH  029%=      5-min Rain = 0
KTUR 242235Z 10006KT 22/03 A3002 RMK A01 T02200029  RH  029%=      5-min Rain = 0
KTUR 242240Z 10005KT 22/03 A3002 RMK A01 T02170028  RH  029%=      5-min Rain = 0
KTUR 242245Z 10004KT 22/03 A3002 RMK A01 T02180028  RH  029%=      5-min Rain = 0
KTUR 242250Z 07004KT 22/03 A3001 RMK A01 T02190028  RH  029%=      5-min Rain = 0
KTUR 242255Z 06004KT 22/03 A3001 RMK A01 T02190028  RH  029%=      5-min Rain = 0
KTUR 242300Z 07005KT 22/03 A3001 RMK A01 T02180026  RH  028%=      5-min Rain = 0
KTUR 242305Z 07004KT 22/03 A3001 RMK A01 T02180026  RH  029%=      5-min Rain = 0
KTUR 242310Z 10004KT 22/03 A3001 RMK A01 T02190026  RH  028%=      5-min Rain = 0
KTUR 242315Z 10002KT 22/03 A3001 RMK A01 T02180025  RH  028%=      5-min Rain = 0
KTUR 242320Z 09002KT 22/02 A3001 RMK A01 T02180024  RH  028%=      5-min Rain = 0
KTUR 242325Z 11001KT 22/02 A3001 RMK A01 T02200024  RH  028%=      5-min Rain = 0
KTUR 242330Z 09002KT 22/02 A3001 RMK A01 T02210023  RH  028%=      5-min Rain = 0
KTUR 242335Z 05002KT 22/02 A3002 RMK A01 T02200023  RH  028%=      5-min Rain = 0
KTUR 242340Z 05002KT 22/02 A3002 RMK A01 T02190022  RH  028%=      5-min Rain = 0
KTUR 242345Z 07001KT 22/02 A3002 RMK A01 T02180022  RH  028%=      5-min Rain = 0
KTUR 242350Z 08000KT 22/02 A3002 RMK A01 T02210023  RH  027%=      5-min Rain = 0
KTUR 242355Z 33002KT 22/02 A3002 RMK A01 T02200023  RH  028%=      5-min Rain = 0
KTUR 250000Z 33002KT 22/02 A3002 RMK A01 T02180023  RH  028%=      5-min Rain = 0
KTUR 250005Z 36001KT 22/02 A3002 RMK A01 T02190024  RH  028%=      5-min Rain = 0
KTUR 250010Z 02001KT 22/03 A3002 RMK A01 T02190025  RH  028%=      5-min Rain = 0
KTUR 250015Z 03002KT 22/03 A3003 RMK A01 T02180026  RH  029%=      5-min Rain = 0
KTUR 250020Z 02002KT 22/03 A3003 RMK A01 T02150027  RH  029%=      5-min Rain = 0
KTUR 250025Z 05001KT 22/03 A3003 RMK A01 T02150026  RH  029%=      5-min Rain = 0
KTUR 250030Z 07002KT 21/03 A3003 RMK A01 T02130026  RH  029%=      5-min Rain = 0
KTUR 250035Z 09002KT 21/03 A3002 RMK A01 T02110033  RH  031%=      5-min Rain = 0
KTUR 250040Z 09002KT 21/03 A3003 RMK A01 T02070033  RH  032%=      5-min Rain = 0
KTUR 250045Z 09002KT 21/03 A3003 RMK A01 T02060033  RH  032%=      5-min Rain = 0
KTUR 250050Z 09003KT 20/04 A3003 RMK A01 T02010039  RH  035%=      5-min Rain = 0
KTUR 250055Z 07004KT 20/03 A3002 RMK A01 T01980030  RH  033%=      5-min Rain = 0
KTUR 250100Z 06004KT 20/03 A3002 RMK A01 T01960030  RH  034%=      5-min Rain = 0
KTUR 250105Z 02007KT 19/03 A3002 RMK A01 T01880034  RH  036%=      5-min Rain = 0
KTUR 250110Z 03009KT 18/04 A3002 RMK A01 T01820041  RH  040%=      5-min Rain = 0
KTUR 250115Z 04010KT 18/04 A3003 RMK A01 T01800042  RH  041%=      5-min Rain = 0
KTUR 250120Z 04011KT 18/04 A3003 RMK A01 T01790042  RH  041%=      5-min Rain = 0
KTUR 250125Z 04009KT 18/04 A3003 RMK A01 T01770041  RH  041%=      5-min Rain = 0
KTUR 250130Z 04009KT 17/04 A3003 RMK A01 T01730042  RH  042%=      5-min Rain = 0
KTUR 250135Z 04009KT 17/04 A3004 RMK A01 T01710042  RH  043%=      5-min Rain = 0
KTUR 250140Z 04008KT 17/04 A3004 RMK A01 T01680042  RH  044%=      5-min Rain = 0
KTUR 250145Z 05009KT 17/04 A3004 RMK A01 T01650042  RH  045%=      5-min Rain = 0
KTUR 250150Z 05009KT 17/04 A3004 RMK A01 T01650043  RH  045%=      5-min Rain = 0
KTUR 250155Z 05009KT 16/04 A3004 RMK A01 T01630044  RH  046%=      5-min Rain = 0
KTUR 250200Z 05009KT 16/04 A3004 RMK A01 T01610044  RH  046%=      5-min Rain = 0
KTUR 250205Z 05008KT 16/05 A3004 RMK A01 T01580045  RH  048%=      5-min Rain = 0
KTUR 250210Z 05008KT 16/05 A3005 RMK A01 T01550045  RH  048%=      5-min Rain = 0
KTUR 250215Z 05008KT 15/05 A3005 RMK A01 T01530046  RH  049%=      5-min Rain = 0
KTUR 250220Z 06008KT 15/05 A3005 RMK A01 T01520046  RH  050%=      5-min Rain = 0
KTUR 250225Z 05007KT 15/05 A3005 RMK A01 T01490046  RH  051%=      5-min Rain = 0
KTUR 250230Z 06007KT 15/05 A3006 RMK A01 T01460046  RH  052%=      5-min Rain = 0
KTUR 250235Z 06006KT 15/05 A3006 RMK A01 T01450046  RH  052%=      5-min Rain = 0
KTUR 250240Z 06007KT 14/05 A3006 RMK A01 T01440046  RH  052%=      5-min Rain = 0
KTUR 250245Z 06007KT 14/05 A3006 RMK A01 T01440046  RH  052%=      5-min Rain = 0
KTUR 250250Z 05007KT 14/05 A3007 RMK A01 T01440046  RH  052%=      5-min Rain = 0
KTUR 250255Z 05008KT 14/05 A3007 RMK A01 T01420046  RH  053%=      5-min Rain = 0
KTUR 250300Z 05008KT 14/05 A3007 RMK A01 T01410046  RH  053%=      5-min Rain = 0
KTUR 250305Z 05008KT 14/05 A3007 RMK A01 T01390047  RH  054%=      5-min Rain = 0
KTUR 250310Z 05008KT 14/05 A3007 RMK A01 T01390047  RH  054%=      5-min Rain = 0
KTUR 250315Z 05009KT 14/05 A3007 RMK A01 T01420048  RH  054%=      5-min Rain = 0
KTUR 250320Z 06009KT 14/05 A3007 RMK A01 T01410048  RH  054%=      5-min Rain = 0
KTUR 250325Z 06007KT 14/05 A3007 RMK A01 T01370049  RH  056%=      5-min Rain = 0
KTUR 250330Z 06007KT 13/05 A3008 RMK A01 T01340049  RH  057%=      5-min Rain = 0
KTUR 250335Z 07007KT 13/05 A3008 RMK A01 T01340050  RH  057%=      5-min Rain = 0
KTUR 250340Z 07007KT 13/05 A3008 RMK A01 T01340051  RH  058%=      5-min Rain = 0
KTUR 250345Z 08007KT 13/05 A3008 RMK A01 T01320050  RH  059%=      5-min Rain = 0
KTUR 250350Z 07007KT 13/05 A3008 RMK A01 T01300050  RH  059%=      5-min Rain = 0
KTUR 250355Z 07006KT 13/05 A3008 RMK A01 T01280050  RH  060%=      5-min Rain = 0
KTUR 250400Z 07006KT 13/05 A3009 RMK A01 T01270050  RH  060%=      5-min Rain = 0
KTUR 250405Z 07006KT 13/05 A3009 RMK A01 T01270051  RH  060%=      5-min Rain = 0
KTUR 250410Z 07006KT 13/05 A3009 RMK A01 T01280051  RH  060%=      5-min Rain = 0
KTUR 250415Z 08006KT 13/05 A3009 RMK A01 T01280052  RH  060%=      5-min Rain = 0
KTUR 250420Z 09005KT 13/05 A3009 RMK A01 T01260051  RH  061%=      5-min Rain = 0
KTUR 250425Z 10005KT 12/05 A3009 RMK A01 T01240051  RH  062%=      5-min Rain = 0
KTUR 250430Z 11004KT 12/05 A3009 RMK A01 T01220051  RH  063%=      5-min Rain = 0
KTUR 250435Z 13004KT 12/05 A3009 RMK A01 T01180050  RH  064%=      5-min Rain = 0
KTUR 250440Z 13003KT 12/05 A3009 RMK A01 T01170050  RH  064%=      5-min Rain = 0
KTUR 250445Z 15003KT 12/05 A301 RMK A01 T01170048  RH  064%=      5-min Rain = 0
KTUR 250450Z 16003KT 11/05 A301 RMK A01 T01140047  RH  064%=      5-min Rain = 0
KTUR 250455Z 16003KT 11/05 A301 RMK A01 T01130047  RH  064%=      5-min Rain = 0

Page generated in 0.0188 seconds.